TFL757 EHRD-LGPZ
Flight info
| Callsign | TFL757 |
|---|---|
| Flight time | N/A |
| Altitude | 35000 |
| Route | LUNIX DCT RIDSU DCT SUNEG DCT ETAGO DCT ERKIR DCT VEKEN DCT URAVA DCT BUSET DCT SIPAL DCT TIKSA DCT NERRA DCT KONUV DCT RODON DCT KRK UA14 MALED |
| Aircraft | B738/M-SDE2E3FGHIRWXY/LB1 |
Departure
| Time | N/A |
|---|---|
| Airport | Rotterdam The Hague Airport (EHRD) |
Arrival
| Time | 2026-04-12 20:29 |
|---|---|
| Airport | Aktion National Airport (LGPZ) |
| Time | Latitude | Longitude | Altitude | Speed | Heading |
|---|---|---|---|---|---|
| 2026-04-12 19:31 | 43.71785 | 16.40253 | 35022 ft | 459 kts | 142° |
| 2026-04-12 19:32 | 43.69335 | 16.43122 | 35016 ft | 460 kts | 142° |
| 2026-04-12 19:32 | 43.64447 | 16.48833 | 35029 ft | 460 kts | 142° |
| 2026-04-12 19:33 | 43.59576 | 16.54511 | 35018 ft | 461 kts | 142° |
| 2026-04-12 19:33 | 43.54671 | 16.60217 | 35028 ft | 461 kts | 142° |
| 2026-04-12 19:34 | 43.49759 | 16.65918 | 35030 ft | 461 kts | 142° |
| 2026-04-12 19:34 | 43.44848 | 16.71606 | 35017 ft | 462 kts | 143° |
| 2026-04-12 19:35 | 43.39914 | 16.77307 | 35031 ft | 463 kts | 143° |
| 2026-04-12 19:35 | 43.34972 | 16.83006 | 35019 ft | 463 kts | 143° |
| 2026-04-12 19:36 | 43.30033 | 16.88690 | 35033 ft | 463 kts | 143° |
| 2026-04-12 19:36 | 43.25120 | 16.94331 | 35031 ft | 463 kts | 143° |
| 2026-04-12 19:37 | 43.20170 | 17.00004 | 35021 ft | 463 kts | 143° |
| 2026-04-12 19:37 | 43.15222 | 17.05677 | 35029 ft | 464 kts | 141° |
| 2026-04-12 19:38 | 43.11058 | 17.12412 | 35049 ft | 469 kts | 126° |
| 2026-04-12 19:38 | 43.07472 | 17.19898 | 35038 ft | 471 kts | 126° |
| 2026-04-12 19:39 | 43.03824 | 17.27346 | 35033 ft | 472 kts | 127° |
| 2026-04-12 19:39 | 43.00753 | 17.33511 | 35015 ft | 472 kts | 127° |
| 2026-04-12 19:40 | 42.96465 | 17.42213 | 35022 ft | 473 kts | 126° |
| 2026-04-12 19:40 | 42.92788 | 17.49675 | 35043 ft | 474 kts | 126° |
| 2026-04-12 19:41 | 42.89079 | 17.57122 | 35042 ft | 475 kts | 127° |
| 2026-04-12 19:41 | 42.85284 | 17.64443 | 35040 ft | 476 kts | 128° |
| 2026-04-12 19:42 | 42.81440 | 17.71787 | 35037 ft | 476 kts | 128° |
| 2026-04-12 19:42 | 42.77602 | 17.79137 | 35039 ft | 476 kts | 128° |
| 2026-04-12 19:43 | 42.71842 | 17.90170 | 35057 ft | 477 kts | 128° |
| 2026-04-12 19:43 | 42.68014 | 17.97482 | 35049 ft | 477 kts | 128° |
| 2026-04-12 19:44 | 42.64158 | 18.04830 | 35050 ft | 477 kts | 128° |
| 2026-04-12 19:44 | 42.60300 | 18.12162 | 35051 ft | 477 kts | 128° |
| 2026-04-12 19:45 | 42.56432 | 18.19495 | 35048 ft | 477 kts | 128° |
| 2026-04-12 19:45 | 42.52584 | 18.26772 | 35045 ft | 476 kts | 128° |
| 2026-04-12 19:46 | 42.48722 | 18.34063 | 35048 ft | 476 kts | 128° |
| 2026-04-12 19:46 | 42.44724 | 18.41195 | 35038 ft | 473 kts | 137° |
| 2026-04-12 19:47 | 42.39602 | 18.46623 | 35060 ft | 465 kts | 155° |
| 2026-04-12 19:47 | 42.33835 | 18.50545 | 35070 ft | 465 kts | 157° |
| 2026-04-12 19:48 | 42.28017 | 18.54438 | 35069 ft | 466 kts | 157° |
| 2026-04-12 19:48 | 42.22244 | 18.58355 | 35072 ft | 468 kts | 156° |
| 2026-04-12 19:49 | 42.16422 | 18.62334 | 35063 ft | 470 kts | 156° |
| 2026-04-12 19:49 | 42.10586 | 18.66321 | 35062 ft | 471 kts | 156° |
| 2026-04-12 19:50 | 42.04732 | 18.70311 | 35060 ft | 470 kts | 156° |
| 2026-04-12 19:50 | 41.98901 | 18.74275 | 35057 ft | 470 kts | 156° |
| 2026-04-12 19:51 | 41.93098 | 18.78211 | 35051 ft | 469 kts | 156° |
| 2026-04-12 19:51 | 41.87262 | 18.82161 | 35059 ft | 469 kts | 156° |
| 2026-04-12 19:52 | 41.81422 | 18.86106 | 35062 ft | 469 kts | 157° |
| 2026-04-12 19:52 | 41.75587 | 18.90039 | 35059 ft | 469 kts | 157° |
| 2026-04-12 19:53 | 41.69751 | 18.93965 | 35060 ft | 469 kts | 157° |
| 2026-04-12 19:53 | 41.63908 | 18.97888 | 35057 ft | 469 kts | 157° |
| 2026-04-12 19:54 | 41.58113 | 19.01772 | 35062 ft | 469 kts | 157° |
| 2026-04-12 19:54 | 41.52285 | 19.05670 | 35063 ft | 468 kts | 157° |
| 2026-04-12 19:55 | 41.46454 | 19.09562 | 35060 ft | 468 kts | 157° |
| 2026-04-12 19:55 | 41.40463 | 19.12872 | 35066 ft | 464 kts | 163° |
| 2026-04-12 19:56 | 41.37425 | 19.14342 | 34935 ft | 468 kts | 164° |
| 2026-04-12 19:56 | 41.34337 | 19.15813 | 34636 ft | 472 kts | 164° |
| 2026-04-12 19:56 | 41.31263 | 19.17286 | 34260 ft | 466 kts | 163° |
| 2026-04-12 19:56 | 41.28237 | 19.18754 | 33879 ft | 460 kts | 163° |
| 2026-04-12 19:57 | 41.25253 | 19.20217 | 33468 ft | 454 kts | 163° |
| 2026-04-12 19:57 | 41.22345 | 19.21650 | 33061 ft | 449 kts | 163° |
| 2026-04-12 19:57 | 41.19425 | 19.23093 | 32667 ft | 444 kts | 163° |
| 2026-04-12 19:57 | 41.16544 | 19.24519 | 32282 ft | 440 kts | 163° |
| 2026-04-12 19:58 | 41.13680 | 19.25934 | 31890 ft | 435 kts | 163° |
| 2026-04-12 19:58 | 41.10854 | 19.27330 | 31505 ft | 430 kts | 163° |
| 2026-04-12 19:58 | 41.08088 | 19.28694 | 31144 ft | 429 kts | 163° |
| 2026-04-12 19:58 | 41.05277 | 19.30076 | 30789 ft | 435 kts | 163° |
| 2026-04-12 19:59 | 41.02390 | 19.31490 | 30459 ft | 450 kts | 163° |
| 2026-04-12 19:59 | 40.99403 | 19.32951 | 30108 ft | 462 kts | 163° |
| 2026-04-12 19:59 | 40.96394 | 19.34427 | 29674 ft | 460 kts | 162° |
| 2026-04-12 19:59 | 40.93409 | 19.35895 | 29242 ft | 455 kts | 162° |
| 2026-04-12 20:00 | 40.91456 | 19.36855 | 28963 ft | 451 kts | 162° |
| 2026-04-12 20:00 | 40.88522 | 19.38297 | 28551 ft | 446 kts | 162° |
| 2026-04-12 20:00 | 40.85630 | 19.39715 | 28145 ft | 442 kts | 162° |
| 2026-04-12 20:00 | 40.82751 | 19.41124 | 27750 ft | 438 kts | 162° |
| 2026-04-12 20:01 | 40.79899 | 19.42517 | 27361 ft | 435 kts | 162° |
| 2026-04-12 20:01 | 40.77068 | 19.43898 | 26976 ft | 432 kts | 162° |
| 2026-04-12 20:01 | 40.73343 | 19.45713 | 26466 ft | 429 kts | 162° |
| 2026-04-12 20:01 | 40.70546 | 19.47075 | 26093 ft | 427 kts | 162° |
| 2026-04-12 20:02 | 40.68664 | 19.47990 | 25846 ft | 426 kts | 162° |
| 2026-04-12 20:02 | 40.65922 | 19.49323 | 25486 ft | 425 kts | 162° |
| 2026-04-12 20:02 | 40.63151 | 19.50668 | 25126 ft | 424 kts | 161° |
| 2026-04-12 20:02 | 40.60386 | 19.52010 | 24775 ft | 422 kts | 161° |
| 2026-04-12 20:03 | 40.57630 | 19.53346 | 24431 ft | 421 kts | 161° |
| 2026-04-12 20:03 | 40.54888 | 19.54675 | 24084 ft | 419 kts | 161° |
| 2026-04-12 20:03 | 40.52158 | 19.55997 | 23743 ft | 417 kts | 161° |
| 2026-04-12 20:03 | 40.49439 | 19.57312 | 23357 ft | 416 kts | 162° |
| 2026-04-12 20:04 | 40.46729 | 19.58622 | 22950 ft | 414 kts | 162° |
| 2026-04-12 20:04 | 40.44014 | 19.59933 | 22555 ft | 413 kts | 162° |
| 2026-04-12 20:04 | 40.41357 | 19.61215 | 22166 ft | 411 kts | 162° |
| 2026-04-12 20:04 | 40.38681 | 19.62505 | 21776 ft | 409 kts | 162° |
| 2026-04-12 20:05 | 40.36015 | 19.63789 | 21386 ft | 406 kts | 161° |
| 2026-04-12 20:05 | 40.33367 | 19.65064 | 21005 ft | 403 kts | 161° |
| 2026-04-12 20:05 | 40.30743 | 19.66325 | 20633 ft | 400 kts | 161° |
| 2026-04-12 20:05 | 40.28137 | 19.67577 | 20270 ft | 398 kts | 161° |
| 2026-04-12 20:06 | 40.25546 | 19.68821 | 19886 ft | 396 kts | 162° |
| 2026-04-12 20:06 | 40.22997 | 19.70043 | 19528 ft | 393 kts | 162° |
| 2026-04-12 20:06 | 40.20434 | 19.71271 | 19180 ft | 391 kts | 162° |
| 2026-04-12 20:06 | 40.17889 | 19.72489 | 18833 ft | 389 kts | 161° |
| 2026-04-12 20:07 | 40.15346 | 19.73706 | 18487 ft | 388 kts | 161° |
| 2026-04-12 20:07 | 40.12820 | 19.74913 | 18114 ft | 386 kts | 161° |
| 2026-04-12 20:07 | 40.10302 | 19.76117 | 17721 ft | 384 kts | 161° |
| 2026-04-12 20:07 | 40.07802 | 19.77311 | 17340 ft | 381 kts | 161° |
| 2026-04-12 20:08 | 40.05316 | 19.78497 | 16938 ft | 379 kts | 162° |
| 2026-04-12 20:08 | 40.02847 | 19.79674 | 16552 ft | 376 kts | 161° |
| 2026-04-12 20:08 | 40.00395 | 19.80842 | 16172 ft | 374 kts | 161° |
| 2026-04-12 20:08 | 39.97987 | 19.81988 | 15794 ft | 372 kts | 161° |
| 2026-04-12 20:09 | 39.95566 | 19.83139 | 15437 ft | 370 kts | 161° |
| 2026-04-12 20:09 | 39.93151 | 19.84286 | 15078 ft | 368 kts | 161° |
| 2026-04-12 20:09 | 39.90749 | 19.85426 | 14726 ft | 365 kts | 161° |
| 2026-04-12 20:09 | 39.88372 | 19.86554 | 14367 ft | 363 kts | 161° |
| 2026-04-12 20:10 | 39.86001 | 19.87678 | 14019 ft | 362 kts | 161° |
| 2026-04-12 20:10 | 39.83675 | 19.88780 | 13653 ft | 360 kts | 161° |
| 2026-04-12 20:10 | 39.81327 | 19.89891 | 13256 ft | 358 kts | 162° |
| 2026-04-12 20:10 | 39.78991 | 19.90997 | 12873 ft | 356 kts | 162° |
| 2026-04-12 20:11 | 39.76665 | 19.92096 | 12493 ft | 355 kts | 161° |
| 2026-04-12 20:11 | 39.74351 | 19.93189 | 12115 ft | 352 kts | 162° |
| 2026-04-12 20:11 | 39.72064 | 19.94269 | 11740 ft | 348 kts | 162° |
| 2026-04-12 20:11 | 39.69798 | 19.95339 | 11375 ft | 344 kts | 162° |
| 2026-04-12 20:12 | 39.67583 | 19.96384 | 11289 ft | 331 kts | 162° |
| 2026-04-12 20:12 | 39.65462 | 19.97384 | 11270 ft | 317 kts | 162° |
| 2026-04-12 20:12 | 39.63430 | 19.98342 | 11258 ft | 304 kts | 162° |
| 2026-04-12 20:12 | 39.61482 | 19.99259 | 11259 ft | 293 kts | 162° |
| 2026-04-12 20:13 | 39.59576 | 20.00155 | 11268 ft | 291 kts | 162° |
| 2026-04-12 20:13 | 39.57690 | 20.01039 | 11278 ft | 292 kts | 162° |
| 2026-04-12 20:13 | 39.53835 | 20.02847 | 11286 ft | 296 kts | 162° |
| 2026-04-12 20:14 | 39.51899 | 20.03756 | 11277 ft | 295 kts | 162° |
| 2026-04-12 20:14 | 39.49968 | 20.04662 | 11272 ft | 295 kts | 162° |
| 2026-04-12 20:14 | 39.48037 | 20.05567 | 11272 ft | 294 kts | 162° |
| 2026-04-12 20:14 | 39.46114 | 20.06467 | 11269 ft | 294 kts | 162° |
| 2026-04-12 20:15 | 39.44194 | 20.07380 | 11270 ft | 294 kts | 160° |
| 2026-04-12 20:15 | 39.42314 | 20.08448 | 11142 ft | 298 kts | 157° |
| 2026-04-12 20:15 | 39.40436 | 20.09596 | 10888 ft | 298 kts | 156° |
| 2026-04-12 20:15 | 39.38605 | 20.10730 | 10636 ft | 294 kts | 156° |
| 2026-04-12 20:16 | 39.36767 | 20.11865 | 10410 ft | 290 kts | 156° |
| 2026-04-12 20:16 | 39.34950 | 20.12980 | 10166 ft | 287 kts | 157° |
| 2026-04-12 20:16 | 39.33157 | 20.14075 | 9913 ft | 284 kts | 157° |
| 2026-04-12 20:16 | 39.31379 | 20.15157 | 9651 ft | 281 kts | 156° |
| 2026-04-12 20:17 | 39.29610 | 20.16229 | 9391 ft | 278 kts | 157° |
| 2026-04-12 20:17 | 39.27867 | 20.17285 | 9127 ft | 275 kts | 156° |
| 2026-04-12 20:17 | 39.26140 | 20.18330 | 8874 ft | 273 kts | 156° |
| 2026-04-12 20:17 | 39.24430 | 20.19364 | 8618 ft | 270 kts | 156° |
| 2026-04-12 20:18 | 39.22737 | 20.20386 | 8371 ft | 268 kts | 156° |
| 2026-04-12 20:18 | 39.21056 | 20.21402 | 8121 ft | 266 kts | 156° |
| 2026-04-12 20:18 | 39.19389 | 20.22407 | 7882 ft | 263 kts | 156° |
| 2026-04-12 20:18 | 39.17732 | 20.23405 | 7630 ft | 261 kts | 156° |
| 2026-04-12 20:19 | 39.16096 | 20.24390 | 7385 ft | 259 kts | 156° |
| 2026-04-12 20:19 | 39.14491 | 20.25414 | 7159 ft | 256 kts | 153° |
| 2026-04-12 20:19 | 39.12954 | 20.26474 | 6971 ft | 251 kts | 153° |
| 2026-04-12 20:19 | 39.11427 | 20.27541 | 6770 ft | 249 kts | 152° |
| 2026-04-12 20:20 | 39.09900 | 20.28606 | 6585 ft | 251 kts | 152° |
| 2026-04-12 20:20 | 39.08356 | 20.29678 | 6403 ft | 254 kts | 152° |
| 2026-04-12 20:20 | 39.06798 | 20.30758 | 6198 ft | 253 kts | 152° |
| 2026-04-12 20:20 | 39.05254 | 20.31826 | 5994 ft | 251 kts | 152° |
| 2026-04-12 20:21 | 39.03722 | 20.32883 | 5788 ft | 249 kts | 152° |
| 2026-04-12 20:21 | 39.02196 | 20.33935 | 5591 ft | 248 kts | 152° |
| 2026-04-12 20:21 | 39.00676 | 20.34982 | 5391 ft | 246 kts | 152° |
| 2026-04-12 20:21 | 38.99176 | 20.36015 | 5196 ft | 244 kts | 152° |
| 2026-04-12 20:22 | 38.97682 | 20.37042 | 5000 ft | 243 kts | 152° |
| 2026-04-12 20:22 | 38.96192 | 20.38066 | 4803 ft | 242 kts | 152° |
| 2026-04-12 20:22 | 38.94707 | 20.39087 | 4601 ft | 242 kts | 152° |
| 2026-04-12 20:22 | 38.93224 | 20.40104 | 4386 ft | 240 kts | 152° |
| 2026-04-12 20:23 | 38.91769 | 20.41103 | 4198 ft | 239 kts | 152° |
| 2026-04-12 20:23 | 38.90300 | 20.42109 | 3991 ft | 238 kts | 152° |
| 2026-04-12 20:23 | 38.88845 | 20.43106 | 3794 ft | 236 kts | 152° |
| 2026-04-12 20:23 | 38.87420 | 20.44134 | 3589 ft | 234 kts | 144° |
| 2026-04-12 20:24 | 38.86325 | 20.45659 | 3392 ft | 233 kts | 121° |
| 2026-04-12 20:24 | 38.85694 | 20.47558 | 3186 ft | 230 kts | 113° |
| 2026-04-12 20:24 | 38.85129 | 20.49473 | 2941 ft | 226 kts | 113° |
| 2026-04-12 20:24 | 38.84811 | 20.51428 | 2645 ft | 225 kts | 89° |
| 2026-04-12 20:25 | 38.85193 | 20.53353 | 2406 ft | 223 kts | 71° |
| 2026-04-12 20:25 | 38.85793 | 20.55149 | 2144 ft | 214 kts | 71° |
| 2026-04-12 20:25 | 38.86349 | 20.56843 | 1899 ft | 201 kts | 72° |
| 2026-04-12 20:25 | 38.86864 | 20.58444 | 1830 ft | 190 kts | 73° |
| 2026-04-12 20:26 | 38.87354 | 20.59982 | 1847 ft | 184 kts | 72° |
| 2026-04-12 20:26 | 38.87847 | 20.61492 | 1839 ft | 182 kts | 72° |
| 2026-04-12 20:26 | 38.88321 | 20.62992 | 1818 ft | 184 kts | 72° |
| 2026-04-12 20:26 | 38.88796 | 20.64512 | 1628 ft | 179 kts | 72° |
| 2026-04-12 20:27 | 38.89250 | 20.65953 | 1394 ft | 170 kts | 72° |
| 2026-04-12 20:27 | 38.89680 | 20.67324 | 1223 ft | 161 kts | 72° |
| 2026-04-12 20:27 | 38.90089 | 20.68632 | 1024 ft | 156 kts | 70° |
| 2026-04-12 20:27 | 38.90484 | 20.69896 | 843 ft | 155 kts | 69° |
| 2026-04-12 20:28 | 38.90887 | 20.71177 | 649 ft | 154 kts | 67° |
| 2026-04-12 20:28 | 38.91292 | 20.72466 | 449 ft | 157 kts | 66° |
| 2026-04-12 20:28 | 38.91701 | 20.73764 | 226 ft | 156 kts | 67° |
| 2026-04-12 20:28 | 38.92104 | 20.75039 | 34 ft | 154 kts | 69° |
| 2026-04-12 20:29 | 38.92480 | 20.76232 | 19 ft | 128 kts | 68° |
| 2026-04-12 20:29 | 38.92752 | 20.77107 | 16 ft | 66 kts | 68° |
| 2026-04-12 20:29 | 38.92822 | 20.77321 | 17 ft | 10 kts | 51° |
| 2026-04-12 20:29 | 38.92885 | 20.77333 | 16 ft | 10 kts | 343° |
| 2026-04-12 20:30 | 38.92932 | 20.77305 | 17 ft | 7 kts | 317° |
| 2026-04-12 20:30 | 38.92970 | 20.77269 | 17 ft | 7 kts | 337° |
| 2026-04-12 20:30 | 38.93009 | 20.77248 | 18 ft | 2 kts | 338° |
| 2026-04-12 20:30 | 38.93022 | 20.77242 | 18 ft | 2 kts | 338° |
| 2026-04-12 20:31 | 38.93024 | 20.77241 | 18 ft | 0 kts | 338° |